Terminal Aerodrome Forecast
Issued by NWS Wakefield, VA

Home | Current Version | Previous Version | Text Only | Print | Product List | Glossary On
Versions: 1 2 3 4 5 6 7 8 9 10 11 12 13 14 15 16 17 18 19 20 21 22 23
000
FTUS41 KAKQ 281738
TAFORF
TAF
KORF 281738Z 2818/2918 21006KT P6SM SCT035 BKN060
     FM282300 19008KT P6SM SCT060
     FM291100 21010KT P6SM SCT020
     FM291500 22011G17KT P6SM SCT035=

USA.gov is the U.S. government's official web portal to all federal, state and local government web resources and services.